Time;durP1;ratioP1;P1;durP2;ratioP2;P2;SDS_P1;SDS_P2;PMS_P1;PMS_P2;Temp;Humidity;BMP_temperature;BMP_pressure;BME280_temperature;BME280_humidity;BME280_pressure;Samples;Min_cycle;Max_cycle;Signal;HPM_P1;HPM_P2
2024/01/09 00:00:48;;;;;;;;;8.67;8.00;;;;;20.41;37.70;102598.66;6400309;22;45265;-75
2024/01/09 00:03:14;;;;;;;;;9.00;9.00;;;;;20.39;37.58;102590.88;6400029;22;45351;-75
2024/01/09 00:05:39;;;;;;;;;10.00;9.00;;;;;20.33;37.82;102591.38;6400336;22;45502;-75
2024/01/09 00:08:05;;;;;;;;;10.67;7.00;;;;;20.22;37.96;102578.22;6399542;22;45287;-76
2024/01/09 00:10:30;;;;;;;;;10.00;7.33;;;;;20.22;37.42;102567.63;6400224;22;45330;-74
2024/01/09 00:12:56;;;;;;;;;6.00;5.33;;;;;20.25;37.34;102584.06;6400035;22;45283;-75
2024/01/09 00:15:22;;;;;;;;;8.00;8.00;;;;;20.35;37.48;102583.34;6400524;22;45219;-76
2024/01/09 00:17:47;;;;;;;;;8.00;7.00;;;;;20.22;37.35;102559.72;6399534;22;45969;-76
2024/01/09 00:20:12;;;;;;;;;6.00;5.00;;;;;20.26;37.43;102563.78;6399005;22;48388;-75
2024/01/09 00:22:38;;;;;;;;;6.67;6.33;;;;;20.33;37.08;102582.59;6399845;22;45567;-75
2024/01/09 00:25:03;;;;;;;;;7.00;6.00;;;;;20.25;37.28;102573.50;6399974;22;45280;-76
2024/01/09 00:27:29;;;;;;;;;5.00;5.00;;;;;20.29;37.12;102568.81;6399391;22;46839;-76
2024/01/09 00:29:54;;;;;;;;;9.00;7.67;;;;;20.32;37.24;102584.44;6399423;22;50014;-75
2024/01/09 00:32:19;;;;;;;;;6.67;6.67;;;;;20.32;37.04;102575.66;6399798;22;45148;-76
2024/01/09 00:34:45;;;;;;;;;7.00;5.33;;;;;20.32;37.08;102575.66;6400263;22;45505;-75
2024/01/09 00:37:11;;;;;;;;;7.00;7.00;;;;;20.22;36.88;102567.63;6399054;22;46176;-75
2024/01/09 00:39:36;;;;;;;;;5.33;5.00;;;;;20.28;37.15;102570.59;6399498;22;45223;-75
2024/01/09 00:42:02;;;;;;;;;10.33;7.33;;;;;20.28;37.13;102573.25;6400089;22;45200;-75
2024/01/09 00:44:27;;;;;;;;;8.00;5.67;;;;;20.00;37.05;102532.34;6400140;22;45379;-75
2024/01/09 00:46:52;;;;;;;;;8.00;7.00;;;;;20.27;36.87;102563.63;6399766;22;49142;-76
2024/01/09 00:49:18;;;;;;;;;9.00;7.67;;;;;20.25;36.67;102560.28;6399487;22;54788;-76
2024/01/09 00:51:43;;;;;;;;;7.67;7.00;;;;;20.22;37.02;102546.50;6399143;22;49559;-74
2024/01/09 00:54:08;;;;;;;;;8.00;7.00;;;;;20.25;36.73;102557.63;6399098;22;54130;-76
2024/01/09 00:56:34;;;;;;;;;8.33;6.67;;;;;19.93;36.74;102501.13;6399230;22;47060;-75
2024/01/09 00:59:00;;;;;;;;;9.33;7.00;;;;;20.25;36.89;102551.50;6399365;22;45306;-75
2024/01/09 01:01:25;;;;;;;;;8.00;8.00;;;;;20.12;36.52;102520.81;6399779;22;45225;-76
2024/01/09 01:03:50;;;;;;;;;5.67;5.67;;;;;20.23;36.67;102545.50;6399356;22;49529;-76
2024/01/09 01:06:16;;;;;;;;;7.33;7.33;;;;;20.20;36.86;102536.03;6398913;22;46899;-75
2024/01/09 01:08:41;;;;;;;;;6.00;5.33;;;;;20.23;36.96;102532.28;6370860;22;45332;-75
2024/01/09 01:11:06;;;;;;;;;6.00;6.00;;;;;20.22;36.88;102531.44;6399511;22;45228;-75
2024/01/09 01:13:31;;;;;;;;;6.00;5.00;;;;;20.16;36.63;102527.53;6399560;22;45397;-75
2024/01/09 01:15:57;;;;;;;;;6.00;5.00;;;;;20.21;36.53;102542.16;6399541;22;50329;-76
2024/01/09 01:18:22;;;;;;;;;5.00;5.00;;;;;20.19;36.86;102534.38;6399293;22;49978;-76
2024/01/09 01:20:47;;;;;;;;;8.33;5.33;;;;;20.22;36.52;102541.22;6370653;22;45499;-75
2024/01/09 01:23:14;;;;;;;;;5.00;5.00;;;;;20.17;36.32;102531.00;6399229;22;45394;-75
2024/01/09 01:25:40;;;;;;;;;5.67;5.33;;;;;20.18;36.19;102530.88;6399082;22;46292;-76
2024/01/09 01:28:05;;;;;;;;;8.00;7.00;;;;;20.20;36.41;102532.53;6399025;22;45210;-73
2024/01/09 01:30:30;;;;;;;;;6.67;6.00;;;;;20.19;36.19;102529.09;6399685;22;46244;-76
2024/01/09 01:32:56;;;;;;;;;6.33;6.33;;;;;20.19;36.31;102526.44;6401147;22;45362;-75
2024/01/09 01:35:21;;;;;;;;;7.00;6.00;;;;;20.19;36.10;102523.81;6400630;22;45180;-76
2024/01/09 01:37:46;;;;;;;;;8.00;7.75;;;;;20.12;35.78;102512.88;6400411;22;46481;-75
2024/01/09 01:40:12;;;;;;;;;6.00;4.33;;;;;20.16;36.33;102516.97;6401277;22;45263;-76
2024/01/09 01:42:37;;;;;;;;;8.00;6.00;;;;;20.18;36.25;102532.69;6400975;22;45302;-76
2024/01/09 01:45:14;;;;;;;;;8.33;8.33;;;;;20.18;35.96;102533.53;6400712;22;46025;-76
2024/01/09 01:47:39;;;;;;;;;7.67;7.67;;;;;20.18;36.25;102532.69;6400260;22;45349;-76
2024/01/09 01:50:06;;;;;;;;;7.00;5.75;;;;;19.87;36.25;102496.38;6400499;22;45293;-75
2024/01/09 01:52:31;;;;;;;;;5.33;4.33;;;;;20.17;36.06;102547.69;6400658;22;45414;-75
2024/01/09 01:54:56;;;;;;;;;8.00;6.75;;;;;20.17;36.16;102536.28;6400311;22;46003;-75
2024/01/09 01:57:22;;;;;;;;;7.33;6.67;;;;;20.02;36.10;102515.41;6400337;22;45429;-75
2024/01/09 01:59:48;;;;;;;;;6.00;6.00;;;;;20.14;36.04;102539.19;6400687;22;45261;-76
2024/01/09 02:02:14;;;;;;;;;7.00;7.00;;;;;20.12;36.09;102536.66;6401128;22;45210;-76
2024/01/09 02:04:41;;;;;;;;;7.00;6.33;;;;;20.02;35.78;102519.84;6399978;22;47143;-76
2024/01/09 02:07:06;;;;;;;;;7.33;5.00;;;;;19.94;36.01;102510.75;6400372;22;45278;-76
2024/01/09 02:09:33;;;;;;;;;5.33;5.33;;;;;20.06;36.12;102524.75;6400923;22;45290;-76
2024/01/09 02:11:59;;;;;;;;;7.33;6.67;;;;;20.13;35.93;102534.88;6400908;22;45438;-75
2024/01/09 02:14:24;;;;;;;;;6.00;6.00;;;;;20.13;35.96;102533.06;6400537;22;46062;-76
2024/01/09 02:16:50;;;;;;;;;6.00;5.00;;;;;20.11;35.80;102526.19;6400768;22;45350;-76
2024/01/09 02:19:15;;;;;;;;;6.00;5.67;;;;;20.13;35.94;102538.34;6400400;22;45343;-75
2024/01/09 02:21:42;;;;;;;;;6.00;6.00;;;;;20.13;35.73;102529.59;6400809;22;45418;-75
2024/01/09 02:24:07;;;;;;;;;5.33;5.00;;;;;20.08;36.11;102522.00;6400769;22;46059;-76
2024/01/09 02:26:40;;;;;;;;;7.00;6.33;;;;;20.12;35.51;102534.03;6400537;22;45210;-75
2024/01/09 02:29:09;;;;;;;;;8.00;5.33;;;;;19.96;35.86;102511.47;6400910;22;45337;-76
2024/01/09 02:31:35;;;;;;;;;8.67;7.00;;;;;20.11;35.84;102529.69;6400323;22;45538;-75
2024/01/09 02:34:02;;;;;;;;;4.67;4.00;;;;;20.05;35.83;102527.53;6399600;22;46856;-75
2024/01/09 02:36:27;;;;;;;;;7.50;5.00;;;;;19.92;35.53;102498.63;6400776;22;45462;-76
2024/01/09 02:38:52;;;;;;;;;6.00;6.00;;;;;20.01;36.13;102526.13;6400178;22;45274;-76
2024/01/09 02:41:18;;;;;;;;;5.67;5.67;;;;;20.10;35.88;102525.34;6400556;22;50187;-75
2024/01/09 02:43:43;;;;;;;;;5.67;5.67;;;;;20.11;35.52;102520.91;6399580;22;46960;-75
2024/01/09 02:46:08;;;;;;;;;7.00;5.67;;;;;20.10;35.79;102528.00;6400166;22;45307;-76
2024/01/09 02:48:34;;;;;;;;;7.00;7.00;;;;;20.09;35.74;102525.50;6399539;22;45523;-76
2024/01/09 02:50:59;;;;;;;;;4.67;4.67;;;;;20.09;35.88;102526.31;6400412;22;45497;-76
2024/01/09 02:53:25;;;;;;;;;6.33;6.33;;;;;20.03;35.75;102514.47;6400657;22;45569;-75
2024/01/09 02:55:50;;;;;;;;;5.00;5.00;;;;;19.91;35.75;102496.94;6400121;22;45299;-76
2024/01/09 02:58:16;;;;;;;;;4.67;4.67;;;;;20.08;35.69;102527.28;6400247;22;45248;-75
2024/01/09 03:00:41;;;;;;;;;5.00;4.67;;;;;20.08;35.34;102527.28;6400387;22;45358;-75
2024/01/09 03:03:06;;;;;;;;;6.00;5.00;;;;;20.07;35.59;102520.31;6399914;22;51868;-75
2024/01/09 03:05:32;;;;;;;;;7.33;7.33;;;;;20.01;35.46;102515.56;6400605;22;45274;-76
2024/01/09 03:07:57;;;;;;;;;6.00;6.00;;;;;20.08;35.54;102524.66;6400654;22;45435;-75
2024/01/09 03:10:22;;;;;;;;;5.00;5.00;;;;;20.07;35.66;102518.53;6399920;22;56553;-75
2024/01/09 03:12:48;;;;;;;;;6.33;6.00;;;;;19.80;35.41;102471.44;6399377;22;62451;-76
2024/01/09 03:15:13;;;;;;;;;6.00;6.00;;;;;20.08;35.49;102524.66;6400268;22;45209;-75
2024/01/09 03:17:38;;;;;;;;;7.00;7.00;;;;;19.78;35.43;102462.78;6400141;22;45229;-76
2024/01/09 03:20:06;;;;;;;;;6.50;6.00;;;;;20.03;35.39;102514.47;6400248;22;45218;-76
2024/01/09 03:22:31;;;;;;;;;5.67;5.00;;;;;19.99;35.35;102496.31;6399921;22;45237;-76
2024/01/09 03:24:57;;;;;;;;;4.33;4.33;;;;;20.03;35.29;102506.53;6400155;22;45176;-76
2024/01/09 03:27:22;;;;;;;;;8.33;6.00;;;;;20.06;35.46;102518.66;6400262;22;45218;-75
2024/01/09 03:29:47;;;;;;;;;6.00;5.00;;;;;20.06;35.40;102508.09;6400097;22;45264;-76
2024/01/09 03:32:13;;;;;;;;;7.00;6.00;;;;;20.06;35.30;102508.09;6400130;22;45195;-76
2024/01/09 03:34:40;;;;;;;;;7.00;7.00;;;;;19.94;35.51;102491.41;6400270;22;45500;-76
2024/01/09 03:37:07;;;;;;;;;7.00;5.00;;;;;19.98;35.40;102508.72;6400203;22;45404;-75
2024/01/09 03:39:32;;;;;;;;;5.33;5.00;;;;;20.06;35.53;102508.09;6400157;22;45479;-75
2024/01/09 03:41:57;;;;;;;;;6.00;6.00;;;;;19.97;35.43;102501.75;6400167;22;45303;-76
2024/01/09 03:44:23;;;;;;;;;7.33;5.67;;;;;20.00;35.30;102506.78;6399818;22;45253;-76
2024/01/09 03:46:48;;;;;;;;;6.75;6.00;;;;;20.06;35.16;102513.38;6399974;22;45483;-75
2024/01/09 03:49:14;;;;;;;;;6.00;6.00;;;;;19.91;35.15;102481.94;6400384;22;45252;-75
2024/01/09 03:51:40;;;;;;;;;7.50;5.25;;;;;19.94;35.25;102486.13;6400316;22;45275;-76
2024/01/09 03:54:05;;;;;;;;;5.00;5.00;;;;;20.04;35.32;102510.84;6399824;22;45267;-75
2024/01/09 03:56:30;;;;;;;;;6.75;5.25;;;;;19.86;35.21;102476.19;6400443;22;45150;-76
2024/01/09 03:58:56;;;;;;;;;7.33;5.67;;;;;19.93;35.07;102482.66;6399932;22;45197;-75
2024/01/09 04:01:21;;;;;;;;;6.00;6.00;;;;;20.03;35.37;102503.88;6399543;22;47029;-75
2024/01/09 04:03:46;;;;;;;;;6.00;5.00;;;;;20.01;35.22;102500.50;6399838;22;45279;-76
2024/01/09 04:06:12;;;;;;;;;6.25;6.00;;;;;19.95;35.42;102490.47;6400579;22;45237;-76
2024/01/09 04:08:37;;;;;;;;;6.75;6.75;;;;;20.03;35.13;102503.06;6400301;22;45377;-75
2024/01/09 04:11:04;;;;;;;;;5.75;5.50;;;;;20.04;35.36;102502.06;6399708;22;45445;-76
2024/01/09 04:13:29;;;;;;;;;7.00;6.00;;;;;20.02;35.31;102502.19;6400397;22;45338;-76
2024/01/09 04:15:54;;;;;;;;;5.00;5.00;;;;;20.02;35.31;102493.44;6399736;22;45327;-75
2024/01/09 04:18:20;;;;;;;;;6.00;6.00;;;;;20.02;35.40;102504.84;6400271;22;45488;-76
2024/01/09 04:20:46;;;;;;;;;5.00;4.00;;;;;20.02;35.31;102504.00;6399704;22;47264;-74
2024/01/09 04:23:11;;;;;;;;;5.00;5.00;;;;;19.93;35.03;102484.47;6399899;22;45294;-76
2024/01/09 04:25:36;;;;;;;;;4.33;3.00;;;;;20.02;35.09;102502.19;6400122;22;45291;-73
2024/01/09 04:28:02;;;;;;;;;7.00;6.67;;;;;20.02;35.26;102511.94;6399337;22;60100;-76
2024/01/09 04:30:27;;;;;;;;;4.67;4.67;;;;;20.02;35.01;102504.00;6399763;22;45539;-76
2024/01/09 04:32:53;;;;;;;;;4.33;4.00;;;;;19.97;35.12;102499.09;6399824;22;45283;-76
2024/01/09 04:35:18;;;;;;;;;6.33;5.00;;;;;19.91;35.24;102492.50;6400255;22;45304;-75
2024/01/09 04:37:44;;;;;;;;;6.00;6.00;;;;;19.71;34.76;102465.09;6400168;22;45223;-75
2024/01/09 04:40:09;;;;;;;;;5.00;5.00;;;;;19.57;34.79;102435.34;6400105;22;45230;-73
2024/01/09 04:42:35;;;;;;;;;6.33;5.00;;;;;20.02;35.01;102511.94;6400096;22;45178;-75
2024/01/09 04:45:00;;;;;;;;;4.33;4.33;;;;;19.89;34.60;102483.03;6399433;22;45692;-74
2024/01/09 04:47:26;;;;;;;;;7.50;7.50;;;;;19.85;34.98;102503.59;6399660;22;45184;-76
2024/01/09 04:49:51;;;;;;;;;7.00;6.00;;;;;20.00;34.47;102504.13;6399892;22;45244;-76
2024/01/09 04:52:16;;;;;;;;;6.00;6.00;;;;;20.01;34.61;102502.34;6400063;22;45338;-77
2024/01/09 04:54:42;;;;;;;;;5.00;5.00;;;;;20.00;34.63;102504.13;6399705;22;45158;-76
2024/01/09 04:57:07;;;;;;;;;6.00;5.00;;;;;20.00;34.85;102512.06;6399688;22;45179;-76
2024/01/09 04:59:32;;;;;;;;;9.00;7.75;;;;;19.77;34.73;102466.41;6398914;22;46394;-75
2024/01/09 05:02:01;;;;;;;;;5.50;4.25;;;;;20.00;34.83;102503.28;6399439;22;45129;-75
2024/01/09 05:04:29;;;;;;;;;6.67;6.00;;;;;20.00;34.71;102505.94;6371278;22;45287;-76
2024/01/09 05:06:55;;;;;;;;;5.67;4.33;;;;;20.00;34.77;102505.94;6399867;22;45239;-75
2024/01/09 05:09:20;;;;;;;;;5.00;5.00;;;;;19.95;34.81;102493.09;6400882;22;46055;-76
2024/01/09 05:11:45;;;;;;;;;1.00;0.00;;;;;19.99;34.73;102506.88;6400746;22;45187;-75
2024/01/09 05:14:11;;;;;;;;;6.00;6.00;;;;;19.98;34.87;102508.72;6400530;22;45254;-75
2024/01/09 05:16:36;;;;;;;;;5.75;5.75;;;;;20.01;34.75;102507.63;6372502;22;45302;-76
2024/01/09 05:19:01;;;;;;;;;5.00;3.33;;;;;19.99;34.78;102514.81;6400443;22;46311;-76
2024/01/09 05:21:27;;;;;;;;;6.67;5.00;;;;;19.98;34.73;102515.78;6401199;22;45254;-75
2024/01/09 05:23:52;;;;;;;;;5.75;5.75;;;;;19.98;35.11;102515.78;6401205;22;45209;-76
2024/01/09 05:26:17;;;;;;;;;6.00;6.00;;;;;19.97;34.97;102509.66;6401235;22;45229;-75
2024/01/09 05:28:43;;;;;;;;;6.75;6.25;;;;;19.96;34.78;102506.19;6399982;22;46425;-76
2024/01/09 05:31:08;;;;;;;;;4.75;4.75;;;;;19.83;34.79;102492.28;6400846;22;51364;-75
2024/01/09 05:33:35;;;;;;;;;5.00;5.00;;;;;19.78;34.86;102478.63;6401127;22;45314;-76
2024/01/09 05:36:01;;;;;;;;;6.50;6.50;;;;;19.96;34.48;102507.97;6401071;22;45332;-75
2024/01/09 05:38:26;;;;;;;;;4.33;4.33;;;;;19.92;34.79;102493.34;6371812;22;46180;-76
2024/01/09 05:40:52;;;;;;;;;8.00;6.00;;;;;19.96;35.00;102506.19;6400881;22;45391;-75
2024/01/09 05:43:17;;;;;;;;;7.75;7.25;;;;;19.95;34.67;102501.88;6400392;22;45255;-75
2024/01/09 05:45:42;;;;;;;;;8.00;7.75;;;;;19.66;34.66;102454.91;6400606;22;45508;-75
2024/01/09 05:48:08;;;;;;;;;5.75;5.75;;;;;19.95;34.66;102508.97;6400288;22;46939;-76
2024/01/09 05:50:33;;;;;;;;;5.50;4.50;;;;;19.84;34.67;102493.97;6400565;22;45300;-76
2024/01/09 05:52:58;;;;;;;;;5.75;5.75;;;;;19.91;34.53;102496.94;6401067;22;45325;-76
2024/01/09 05:55:24;;;;;;;;;6.50;6.50;;;;;19.60;34.85;102450.94;6400602;22;45308;-75
2024/01/09 05:57:50;;;;;;;;;7.00;6.25;;;;;19.82;34.73;102486.19;6399779;22;47376;-75
2024/01/09 06:00:16;;;;;;;;;8.50;5.75;;;;;19.90;34.51;102508.50;6401003;22;45255;-75
2024/01/09 06:02:41;;;;;;;;;4.67;4.67;;;;;19.82;34.40;102494.13;6400703;22;45282;-75
2024/01/09 06:05:07;;;;;;;;;7.25;6.25;;;;;19.75;34.96;102481.53;6400900;22;45167;-75
2024/01/09 06:07:32;;;;;;;;;6.67;6.67;;;;;19.80;34.41;102493.38;6400158;22;47058;-75
2024/01/09 06:09:58;;;;;;;;;5.67;5.67;;;;;19.85;34.51;102499.13;6400488;22;45274;-75
2024/01/09 06:12:23;;;;;;;;;6.25;6.25;;;;;19.94;34.85;102510.75;6400618;22;45194;-76
2024/01/09 06:14:48;;;;;;;;;5.00;4.25;;;;;19.95;34.71;102511.59;6400954;22;45423;-75
2024/01/09 06:17:14;;;;;;;;;7.00;5.00;;;;;19.80;34.31;102489.91;6399947;22;48752;-75
2024/01/09 06:19:39;;;;;;;;;5.00;5.00;;;;;19.95;34.40;102511.59;6400252;22;45309;-75
2024/01/09 06:22:04;;;;;;;;;5.00;5.00;;;;;19.91;34.43;102503.06;6400334;22;45750;-76
2024/01/09 06:24:30;;;;;;;;;4.33;4.33;;;;;19.83;34.21;102490.50;6400068;22;49566;-73
2024/01/09 06:26:55;;;;;;;;;4.33;4.00;;;;;19.96;34.51;102511.47;6400164;22;46026;-76
2024/01/09 06:29:22;;;;;;;;;8.33;5.00;;;;;19.88;34.43;102500.69;6400775;22;45264;-73
2024/01/09 06:31:47;;;;;;;;;5.67;4.67;;;;;19.95;34.48;102507.16;6400550;22;45271;-77
2024/01/09 06:34:12;;;;;;;;;5.75;5.75;;;;;19.95;34.14;102508.97;6400741;22;45276;-76
2024/01/09 06:36:37;;;;;;;;;5.67;5.00;;;;;19.87;34.59;102503.47;6400080;22;49084;-77
2024/01/09 06:39:03;;;;;;;;;5.25;5.25;;;;;19.94;34.43;102508.13;6400209;22;45940;-73
2024/01/09 06:41:29;;;;;;;;;4.75;4.75;;;;;19.60;34.30;102456.22;6400633;22;45206;-74
2024/01/09 06:43:54;;;;;;;;;5.00;5.00;;;;;19.95;34.73;102508.97;6399763;22;45409;-72
2024/01/09 06:46:19;;;;;;;;;6.67;6.00;;;;;19.88;34.81;102498.03;6400340;22;45966;-76
2024/01/09 06:48:45;;;;;;;;;5.00;5.00;;;;;19.63;35.12;102457.78;6399379;22;45215;-74
2024/01/09 06:51:11;;;;;;;;;6.00;6.00;;;;;19.93;34.84;102505.59;6399156;22;45296;-74
2024/01/09 06:53:37;;;;;;;;;6.33;5.00;;;;;19.90;35.04;102496.13;6400197;22;45447;-72
2024/01/09 06:56:04;;;;;;;;;8.25;6.00;;;;;19.94;35.14;102501.97;6399068;22;46993;-75
2024/01/09 06:58:29;;;;;;;;;7.00;5.67;;;;;19.84;35.07;102481.63;6400182;22;45339;-74
2024/01/09 07:00:54;;;;;;;;;6.00;6.00;;;;;19.88;35.41;102500.69;6399966;22;46424;-77
2024/01/09 07:03:20;;;;;;;;;7.67;5.00;;;;;19.73;34.97;102461.34;6400820;22;45235;-77
2024/01/09 07:05:45;;;;;;;;;5.67;4.67;;;;;19.99;35.12;102506.88;6399906;22;46389;-78
2024/01/09 07:08:11;;;;;;;;;7.00;5.00;;;;;19.99;35.42;102512.16;6399595;22;45272;-77
2024/01/09 07:10:36;;;;;;;;;6.00;6.00;;;;;20.00;35.08;102511.22;6400181;22;45239;-76
2024/01/09 07:13:01;;;;;;;;;8.00;7.00;;;;;19.99;35.03;102510.38;6400217;22;45452;-76
2024/01/09 07:15:27;;;;;;;;;6.75;6.00;;;;;19.95;35.13;102515.09;6400383;22;46078;-78
2024/01/09 07:17:52;;;;;;;;;8.00;7.00;;;;;19.96;35.08;102505.34;6399531;22;45362;-80
